Flight Track Log - Related Links

Times and Time Zones

All times are in EDT time to prevent confusion due to time zone crossing. See the PVL910 flight status page for this flight to view local times or setup timezone preferences in your user account.


Time Position Orientation Groundspeed Altitude Reporting Facility
EDT Latitude Longitude Course Direction KTS MPH feet Rate Location/Type
Sat 08:47:48 PM 44.8500 -63.5000 200° South 100 115 600  Level Moncton Center
Sat 08:48:48 PM 44.8167 -63.5167 200° South 140 161 2,500 2,000 Climbing Moncton Center
Sat 08:49:48 PM 44.8167 -63.4833 90° East 200 230 4,600 1,950 Climbing Moncton Center
Sat 08:50:48 PM 44.8500 -63.4000 61° Northeast 230 265 6,400 1,650 Climbing Moncton Center
Sat 08:51:48 PM 44.8833 -63.3333 55° Northeast 250 288 7,900 1,850 Climbing Moncton Center
Sat 08:52:48 PM 44.9167 -63.2333 65° Northeast 250 288 10,100 1,850 Climbing Moncton Center
Sat 08:53:48 PM 44.9500 -63.1500 61° Northeast 250 288 11,600 1,550 Climbing Moncton Center
Sat 08:54:48 PM 44.9833 -63.0500 65° Northeast 260 299 13,200 1,250 Climbing Moncton Center
Sat 08:55:48 PM 45.0167 -62.9500 65° Northeast 280 322 14,100 1,150 Climbing Moncton Center
Sat 08:56:48 PM 45.0500 -62.8667 60° Northeast 290 334 15,500 1,350 Climbing Moncton Center
Sat 08:57:48 PM 45.0833 -62.7667 65° Northeast 290 334 16,800 1,250 Climbing Moncton Center
Sat 08:58:48 PM 45.1167 -62.6500 68° East 290 334 18,000 1,100 Climbing Moncton Center
Sat 08:59:48 PM 45.1333 -62.5167 80° East 300 345 19,000 1,050 Climbing Moncton Center
Sat 09:00:48 PM 45.1833 -62.4333 50° Northeast 310 357 20,100 1,100 Climbing Moncton Center
Sat 09:01:48 PM 45.2000 -62.3000 80° East 300 345 21,200 1,000 Climbing Moncton Center
Sat 09:02:48 PM 45.2333 -62.2167 60° Northeast 310 357 22,100 1,000 Climbing Moncton Center
Sat 09:03:48 PM 45.2833 -62.0667 65° Northeast 320 368 23,200 1,050 Climbing Moncton Center
Sat 09:04:48 PM 45.3167 -61.9667 65° Northeast 320 368 24,200 950 Climbing Moncton Center
Sat 09:05:48 PM 45.3667 -61.8500 59° Northeast 320 368 25,100 850 Climbing Moncton Center
Sat 09:06:48 PM 45.4000 -61.7333 68° East 320 368 25,900 850 Climbing Moncton Center
Sat 09:07:48 PM 45.4167 -61.6333 77° East 320 368 26,800 900 Climbing Moncton Center
Sat 09:08:48 PM 45.4500 -61.4833 72° East 320 368 27,700 850 Climbing Moncton Center
Sat 09:09:48 PM 45.4833 -61.3667 68° East 320 368 28,500 750 Climbing Moncton Center
Sat 09:10:48 PM 45.5167 -61.2667 65° Northeast 320 368 29,200 800 Climbing Moncton Center
Sat 09:11:48 PM 45.5500 -61.1500 68° East 320 368 30,100 800 Climbing Moncton Center
Sat 09:12:48 PM 45.5667 -61.0333 78° East 320 368 30,800 450 Climbing Moncton Center
Sat 09:13:48 PM 45.6000 -60.9000 70° East 320 368 31,000 100 Climbing Moncton Center
Sat 09:14:48 PM 45.6500 -60.7833 58° Northeast 350 403 31,000  Level Moncton Center
Sat 09:15:48 PM 45.7000 -60.6333 64° Northeast 360 414 31,000  Level Moncton Center
Sat 09:16:48 PM 45.7333 -60.5167 68° East 370 426 31,000  Level Moncton Center
Sat 09:17:48 PM 45.7833 -60.3667 64° Northeast 380 437 31,000  Level Moncton Center
Sat 09:18:29 PM 45.8000 -60.2833 74° East 380 437 31,000  Level Gander Center
Sat 09:19:29 PM 45.8333 -60.1333 72° East 390 449 31,000  Level Gander Center
Sat 09:19:48 PM 45.8667 -60.1000 35° Northeast 380 437 31,000  Level Moncton Center
Sat 09:20:48 PM 45.8833 -59.9500 81° East 390 449 31,000  Level Moncton Center
Sat 09:21:48 PM 45.9333 -59.8000 64° Northeast 390 449 31,000  Level Moncton Center
Sat 09:22:48 PM 45.9833 -59.6500 64° Northeast 390 449 31,000  Level Moncton Center
Sat 09:23:48 PM 46.0167 -59.5000 72° East 390 449 31,000  Level Moncton Center
Sat 09:24:48 PM 46.0667 -59.3500 64° Northeast 390 449 31,000  Level Moncton Center
Sat 09:25:48 PM 46.0833 -59.2000 81° East 390 449 31,000  Level Moncton Center
Sat 09:26:29 PM 46.1167 -59.1167 60° Northeast 390 449 31,000  Level Gander Center
Sat 09:26:48 PM 46.1333 -59.0500 70° East 390 449 31,000  Level Moncton Center
Sat 09:27:48 PM 46.1833 -58.9167 62° Northeast 390 449 31,000  Level Moncton Center
Sat 09:28:29 PM 46.2000 -58.8167 76° East 390 449 31,000  Level Gander Center
Sat 09:29:29 PM 46.2500 -58.6833 61° Northeast 390 449 31,000  Level Gander Center
Sat 09:30:29 PM 46.2833 -58.5333 72° East 390 449 31,000  Level Gander Center
Sat 09:30:48 PM 46.2833 -58.4833 90° East 390 449 31,000  Level Moncton Center
Sat 09:31:48 PM 46.3333 -58.3333 64° Northeast 390 449 31,000  Level Moncton Center
Sat 09:32:48 PM 46.3667 -58.1833 72° East 390 449 31,000  Level Moncton Center
Sat 09:33:29 PM 46.4000 -58.0833 64° Northeast 390 449 31,000  Level Gander Center
Sat 09:34:29 PM 46.4333 -57.9333 72° East 400 460 31,000  Level Gander Center
Sat 09:35:29 PM 46.4500 -57.7667 82° East 400 460 31,000  Level Gander Center
Sat 09:35:48 PM 46.4667 -57.7333 54° Northeast 400 460 31,000  Level Moncton Center
Sat 09:36:48 PM 46.5167 -57.5833 64° Northeast 410 472 31,000  Level Moncton Center
Sat 09:37:48 PM 46.5667 -57.4333 64° Northeast 400 460 31,000  Level Moncton Center
Sat 09:38:29 PM 46.5833 -57.3167 78° East 410 472 31,000  Level Gander Center
Sat 09:39:29 PM 46.6333 -57.1667 64° Northeast 410 472 31,000  Level Gander Center
Sat 09:39:48 PM 46.6333 -57.1333 90° East 410 472 31,000  Level Moncton Center
Sat 09:40:29 PM 46.6667 -57.0000 70° East 400 460 31,000  Level Gander Center
Sat 09:40:48 PM 46.6667 -56.9833 90° East 400 460 31,000  Level Moncton Center
Sat 09:41:29 PM 46.6833 -56.8500 80° East 410 472 31,000  Level Gander Center
Sat 09:42:29 PM 46.7167 -56.6833 74° East 410 472 31,000  Level Gander Center
Sat 09:43:29 PM 46.7667 -56.5500 61° Northeast 410 472 31,000  Level Gander Center
Sat 09:43:48 PM 46.7667 -56.5000 90° East 400 460 31,000  Level Moncton Center
Sat 09:44:48 PM 46.8167 -56.3500 64° Northeast 410 472 31,000  Level Moncton Center
Sat 09:45:29 PM 46.8333 -56.2333 78° East 410 472 31,000  Level Gander Center
Sat 09:46:29 PM 46.8667 -56.0833 72° East 400 460 31,000  Level Gander Center
Sat 09:46:48 PM 46.8833 -56.0167 70° East 400 460 31,000  Level Moncton Center
Sat 09:47:48 PM 46.9333 -55.8500 66° East 410 472 31,000  Level Moncton Center
Sat 09:48:29 PM 46.9333 -55.7500 90° East 410 472 31,000  Level Gander Center
Sat 09:49:29 PM 46.9833 -55.6000 64° Northeast 410 472 31,000  Level Gander Center
Sat 09:50:29 PM 47.0333 -55.4500 64° Northeast 410 472 31,000  Level Gander Center
Sat 09:51:29 PM 47.0667 -55.3000 72° East 410 472 31,000  Level Gander Center
Sat 09:52:29 PM 47.1000 -55.1167 75° East 410 472 31,000 -200 Level Gander Center
Sat 09:53:29 PM 47.1333 -54.9667 72° East 410 472 30,600 -1,300 Descending Gander Center
Sat 09:54:29 PM 47.1667 -54.8000 74° East 420 483 28,400 -2,400 Descending Gander Center
Sat 09:55:29 PM 47.2000 -54.6333 74° East 430 495 25,800 -2,450 Descending Gander Center
Sat 09:56:29 PM 47.2167 -54.4833 81° East 420 483 23,500 -2,400 Descending Gander Center
Sat 09:57:29 PM 47.2667 -54.3167 66° East 400 460 21,000 -2,350 Descending Gander Center
Sat 09:58:29 PM 47.3000 -54.1833 70° East 390 449 18,800 -2,100 Descending Gander Center
Sat 09:59:29 PM 47.3500 -54.0333 64° Northeast 380 437 16,800 -2,000 Descending Gander Center
Sat 10:00:29 PM 47.3667 -53.8833 81° East 380 437 14,800 -2,278 Descending Gander Center
Sat 10:00:48 PM 47.3833 -53.8167 70° East 370 426 13,800 -1,900 Descending Moncton Center
Sat 10:01:29 PM 47.4000 -53.7167 76° East 360 414 12,900 -1,485 Descending Gander Center
Sat 10:02:29 PM 47.4333 -53.6000 67° East 350 403 11,300 -1,700 Descending Gander Center
Sat 10:03:29 PM 47.4500 -53.4500 81° East 340 391 9,500 -1,700 Descending Gander Center
Sat 10:04:29 PM 47.4667 -53.3167 79° East 330 380 7,900 -1,650 Descending Gander Center
Sat 10:05:29 PM 47.4667 -53.2167 90° East 310 357 6,200 -1,750 Descending Gander Center
Sat 10:06:29 PM 47.5000 -53.0833 70° East 300 345 4,400 -1,350 Descending Gander Center
Sat 10:07:29 PM 47.5000 -52.9667 90° East 290 334 3,500 -800 Descending Gander Center
Sat 10:08:29 PM 47.5167 -52.8667 76° East 260 299 2,800 -550 Descending Gander Center
Sat 10:09:29 PM 47.5333 -52.7667 76° East 250 288 2,400 -200 Descending Gander Center
Sat 10:10:29 PM 47.5500 -52.6833 73° East 220 253 2,400  Level Gander Center
Sat 10:11:29 PM 47.5667 -52.6000 73° East 180 207 2,400  Level Gander Center
Sat 10:12:29 PM 47.5667 -52.5500 90° East 150 173 2,400 -150 Level Gander Center
Sat 10:13:29 PM 47.5667 -52.4833 90° East 160 184 2,100 -150 Descending Gander Center
Sat 10:14:29 PM 47.6167 -52.5000 347° North 160 184 2,100  Level Gander Center
Sat 10:15:29 PM 47.6167 -52.5500 270° West 140 161 2,100 -300 Level Gander Center
Sat 10:16:29 PM 47.6167 -52.6000 270° West 120 138 1,500 -550 Descending Gander Center
Sat 10:17:29 PM 47.6167 -52.6500 270° West 100 115 1,000 -550 Descending Gander Center
Sat 10:18:29 PM 47.6167 -52.7000 270° West 110 127 400 -600 Descending Gander Center

Login

Don't have an account? Register now (free) for customized features, flight alerts, and more!